world map with GOTT marked

GOTT - Airport

This information may not be accurate or current and is not valid for navigation or flight planning. No warranty of fitness for any purpose is made or implied.

flag of Senegal

Donate via PayPal

Additional information is available on the NEW Great Circle Mapper

Location
City:  Tambacounda, Tambacounda, Senegal
Name:Tambacounda Airport
ICAO / IATA:GOTT / TUD

Details
Type:Airport (Aerodrome, Airfield)
Use:Public/Civil
Latitude:13°44'13"N (13.736817)
Longitude:13°39'11"W (-13.653121)
Datum:WGS 1984
Elevation:161 ft (49 m)
Runways:1
Longest:6562 × 98 ft (2000 × 30 m)

Time
Timezone:UTC+0 (DST+2)
Local Time:

Weather
METAR:GOTT  041400Z 06004KT CAVOK 36/10 Q1010

Related Locations
Nearby:
Farthest:TOH: 12430 mi / 20004 km
Loh/Linua [Torres Airstrip], Linua Island, TOB, VU

Find:

   beyond  
but within

Other Information
Maps:
Sources:

  


 


Great Circle Mapper   Great Circle Mapper
Great Circle Mapper FAQ   Great Circle Mapper FAQ
  Karl's Home Page
KLSē   KLSē Home
   GC on Facebook
Airlines of the World   Airlines of the World
Donate via PayPal


Copyright © 2004-2019, Karl L. Swartz. All rights reserved.
All trademarks mentioned herein belong to their respective owners.

Please see credits for attribution and copyright information.

Karl Swartz <karl@kls2.com>
  Powered by FreeBSD
Valid HTML 4.01!
Labeled with ICRA
hCard Microformat
Geo Microformat